Time;durP1;ratioP1;P1;durP2;ratioP2;P2;SDS_P1;SDS_P2;PMS_P1;PMS_P2;Temp;Humidity;BMP_temperature;BMP_pressure;BME280_temperature;BME280_humidity;BME280_pressure;Samples;Min_cycle;Max_cycle;Signal;HPM_P1;HPM_P2
2021/06/30 00:01:42;;;;;;;3.40;3.10;;;16.20;99.90;;;;;;4909021;29;20237;-79
2021/06/30 00:04:09;;;;;;;3.73;3.30;;;16.20;99.90;;;;;;4896571;29;20200;-79
2021/06/30 00:06:35;;;;;;;3.03;2.83;;;16.30;99.90;;;;;;4896226;29;20308;-79
2021/06/30 00:09:02;;;;;;;3.37;2.90;;;16.30;99.90;;;;;;4896060;29;20196;-80
2021/06/30 00:11:31;;;;;;;2.70;2.50;;;16.30;99.90;;;;;;4896448;29;20197;-79
2021/06/30 00:13:57;;;;;;;7.00;3.07;;;16.30;99.90;;;;;;4892020;29;20250;-79
2021/06/30 00:16:30;;;;;;;5.50;2.97;;;16.30;99.90;;;;;;4904517;29;20225;-79
2021/06/30 00:18:57;;;;;;;2.90;2.70;;;16.30;99.90;;;;;;4905289;29;20296;-79
2021/06/30 00:21:24;;;;;;;3.13;2.83;;;16.30;99.90;;;;;;4911003;29;20201;-79
2021/06/30 00:23:51;;;;;;;2.93;2.73;;;16.30;99.90;;;;;;4910847;29;20216;-79
2021/06/30 00:26:18;;;;;;;2.83;2.63;;;16.30;99.90;;;;;;4911054;29;20243;-79
2021/06/30 00:28:46;;;;;;;3.17;2.97;;;16.20;99.90;;;;;;4914048;29;20322;-79
2021/06/30 00:31:15;;;;;;;2.70;2.50;;;16.20;99.90;;;;;;4899860;29;20200;-79
2021/06/30 00:33:41;;;;;;;4.53;2.80;;;16.20;99.90;;;;;;4914294;29;20219;-79
2021/06/30 00:36:08;;;;;;;2.70;2.50;;;16.20;99.90;;;;;;4911251;29;20233;-79
2021/06/30 00:38:35;;;;;;;3.30;3.10;;;16.20;99.90;;;;;;4907332;29;20210;-79
2021/06/30 00:41:03;;;;;;;4.03;2.40;;;16.20;99.90;;;;;;4899573;29;20204;-79
2021/06/30 00:43:30;;;;;;;2.60;2.40;;;16.20;99.90;;;;;;4914361;29;20636;-79
2021/06/30 00:45:58;;;;;;;3.43;2.67;;;16.10;99.90;;;;;;4911567;29;20221;-79
2021/06/30 00:48:25;;;;;;;2.70;2.50;;;16.10;99.90;;;;;;4897982;29;20218;-79
2021/06/30 00:50:51;;;;;;;4.73;3.83;;;16.10;99.90;;;;;;4913999;29;20212;-79
2021/06/30 00:53:18;;;;;;;2.80;2.60;;;16.20;99.90;;;;;;4910699;29;20620;-79
2021/06/30 00:55:48;;;;;;;2.70;2.50;;;16.10;99.90;;;;;;4909747;29;20252;-79
2021/06/30 00:58:16;;;;;;;4.67;2.50;;;16.10;99.90;;;;;;4899074;29;20311;-79
2021/06/30 01:00:43;;;;;;;3.33;2.60;;;16.10;99.90;;;;;;4899368;29;20252;-79
2021/06/30 01:03:11;;;;;;;2.60;2.40;;;16.10;99.90;;;;;;4899222;29;20224;-79
2021/06/30 01:05:38;;;;;;;3.20;2.90;;;16.00;99.90;;;;;;4899082;29;20225;-79
2021/06/30 01:08:05;;;;;;;3.90;2.53;;;16.00;99.90;;;;;;4898810;29;20265;-79
2021/06/30 01:10:32;;;;;;;3.90;2.50;;;16.00;99.90;;;;;;4894976;29;20201;-79
2021/06/30 01:12:59;;;;;;;3.37;2.70;;;15.90;99.90;;;;;;4912404;29;20213;-79
2021/06/30 01:15:26;;;;;;;3.20;2.90;;;15.90;99.90;;;;;;4899446;29;20225;-79
2021/06/30 01:17:53;;;;;;;2.80;2.60;;;15.80;99.90;;;;;;4909065;29;20200;-79
2021/06/30 01:20:21;;;;;;;2.47;2.30;;;15.80;99.90;;;;;;4901226;29;20205;-80
2021/06/30 01:25:40;;;;;;;3.42;2.80;;;15.70;99.90;;;;;;5097079;27;1220521;-80
2021/06/30 01:28:07;;;;;;;3.27;2.80;;;15.50;99.90;;;;;;5104694;28;20201;-80
2021/06/30 01:30:34;;;;;;;2.60;2.40;;;15.50;99.90;;;;;;5114549;28;20197;-79
2021/06/30 01:33:01;;;;;;;3.30;2.70;;;15.40;99.90;;;;;;5124169;28;20199;-79
2021/06/30 01:35:28;;;;;;;3.57;3.33;;;15.40;99.90;;;;;;5105449;28;20634;-80
2021/06/30 01:37:56;;;;;;;3.40;3.20;;;15.30;99.90;;;;;;5107563;28;20283;-79
2021/06/30 01:40:23;;;;;;;3.80;3.20;;;15.20;99.90;;;;;;5105537;28;20680;-79
2021/06/30 01:42:55;;;;;;;3.40;3.20;;;15.10;99.90;;;;;;5101127;28;20211;-80
2021/06/30 01:45:22;;;;;;;3.93;3.73;;;15.10;99.90;;;;;;5119144;28;20636;-80
2021/06/30 01:47:49;;;;;;;4.47;4.17;;;15.10;99.90;;;;;;5122060;28;20189;-79
2021/06/30 01:50:17;;;;;;;3.77;2.40;;;15.00;99.90;;;;;;5103801;28;20196;-79
2021/06/30 01:52:44;;;;;;;2.47;2.27;;;15.00;99.90;;;;;;5103896;28;20608;-78
2021/06/30 01:55:13;;;;;;;2.47;2.33;;;15.00;99.90;;;;;;5103696;28;20193;-80
2021/06/30 01:57:41;;;;;;;2.80;2.07;;;15.00;99.90;;;;;;5126041;28;20195;-80
2021/06/30 02:00:11;;;;;;;2.60;2.30;;;14.90;99.90;;;;;;5121369;28;20196;-79
2021/06/30 02:02:38;;;;;;;3.10;2.30;;;14.90;99.90;;;;;;5099758;28;20228;-80
2021/06/30 02:05:09;;;;;;;2.20;2.10;;;14.90;99.90;;;;;;5106953;27;20242;-80
2021/06/30 02:07:36;;;;;;;2.80;2.60;;;14.90;99.90;;;;;;5120450;28;20197;-79
2021/06/30 02:10:05;;;;;;;2.43;2.33;;;14.90;99.90;;;;;;5105898;28;20282;-80
2021/06/30 02:12:32;;;;;;;2.97;2.23;;;14.90;99.90;;;;;;5103022;28;20200;-80
2021/06/30 02:14:59;;;;;;;2.77;2.67;;;14.90;99.90;;;;;;5123979;28;20199;-80
2021/06/30 02:17:27;;;;;;;2.73;2.53;;;14.90;99.90;;;;;;5122486;28;20204;-80
2021/06/30 02:19:54;;;;;;;2.53;2.43;;;14.90;99.90;;;;;;5123482;28;20185;-80
2021/06/30 02:22:21;;;;;;;2.90;2.70;;;14.90;99.90;;;;;;5099963;28;20204;-79
2021/06/30 02:24:48;;;;;;;2.70;2.60;;;14.90;99.90;;;;;;5101170;28;20861;-79
2021/06/30 02:27:15;;;;;;;2.80;2.60;;;14.80;99.90;;;;;;5120146;28;20212;-79
2021/06/30 02:29:42;;;;;;;2.50;2.30;;;14.80;99.90;;;;;;5102646;28;20189;-79
2021/06/30 02:32:09;;;;;;;2.20;2.10;;;14.80;99.90;;;;;;5102039;28;20194;-80
2021/06/30 02:34:37;;;;;;;2.30;2.20;;;14.90;99.90;;;;;;5102940;28;20203;-80
2021/06/30 02:37:04;;;;;;;2.43;2.27;;;14.80;99.90;;;;;;5102383;28;20209;-76
2021/06/30 02:39:31;;;;;;;2.53;2.43;;;14.80;99.90;;;;;;5084707;28;20198;-78
2021/06/30 02:41:59;;;;;;;2.33;2.20;;;14.90;99.90;;;;;;5085912;28;20677;-77
2021/06/30 02:44:27;;;;;;;2.37;2.27;;;14.90;99.90;;;;;;5101936;28;20218;-77
2021/06/30 02:46:54;;;;;;;2.90;2.60;;;14.90;99.90;;;;;;5081562;28;20249;-76
2021/06/30 02:49:21;;;;;;;2.27;2.17;;;14.90;99.90;;;;;;5094636;28;20197;-77
2021/06/30 02:51:49;;;;;;;2.27;2.10;;;14.90;99.90;;;;;;5074037;28;20207;-77
2021/06/30 02:54:16;;;;;;;2.60;2.50;;;14.90;99.90;;;;;;5070066;28;20193;-77
2021/06/30 02:56:43;;;;;;;2.60;2.50;;;14.90;99.90;;;;;;5089560;28;20220;-77
2021/06/30 02:59:10;;;;;;;2.50;2.40;;;14.90;99.90;;;;;;5065563;28;20289;-76
2021/06/30 03:01:36;;;;;;;2.40;2.30;;;14.80;99.90;;;;;;5095007;28;20560;-76
2021/06/30 03:04:03;;;;;;;2.43;2.30;;;14.90;99.90;;;;;;5094769;28;20217;-76
2021/06/30 03:06:30;;;;;;;2.40;2.30;;;14.90;99.90;;;;;;5094934;28;20292;-79
2021/06/30 03:08:58;;;;;;;2.70;2.60;;;14.90;99.90;;;;;;5085240;28;20197;-79
2021/06/30 03:11:25;;;;;;;4.47;3.00;;;14.90;99.90;;;;;;5103855;28;20735;-79
2021/06/30 03:13:52;;;;;;;3.00;2.80;;;14.80;99.90;;;;;;5084993;28;20197;-78
2021/06/30 03:16:19;;;;;;;3.40;3.20;;;14.80;99.90;;;;;;5084477;28;20324;-78
2021/06/30 03:18:46;;;;;;;4.00;3.70;;;14.80;99.90;;;;;;5105919;28;20197;-78
2021/06/30 03:21:12;;;;;;;5.80;5.50;;;14.70;99.90;;;;;;5083262;28;20262;-79
2021/06/30 03:23:39;;;;;;;6.60;6.30;;;14.70;99.90;;;;;;5103059;28;20200;-79
2021/06/30 03:26:07;;;;;;;5.17;4.90;;;14.70;99.90;;;;;;5079705;28;20248;-80
2021/06/30 03:28:34;;;;;;;3.30;3.10;;;14.70;99.90;;;;;;5087062;28;20218;-80
2021/06/30 03:31:01;;;;;;;5.13;4.87;;;14.70;99.90;;;;;;5082058;28;20240;-81
2021/06/30 03:33:28;;;;;;;5.50;5.20;;;14.70;99.90;;;;;;5107050;28;20540;-80
2021/06/30 03:35:55;;;;;;;6.43;6.03;;;14.60;99.90;;;;;;5082573;28;20216;-80
2021/06/30 03:38:22;;;;;;;5.60;5.30;;;14.60;99.90;;;;;;5100614;28;20199;-81
2021/06/30 03:40:48;;;;;;;6.30;5.90;;;14.50;99.90;;;;;;5105530;28;20200;-80
2021/06/30 03:43:17;;;;;;;5.97;5.67;;;14.50;99.90;;;;;;5085136;28;20681;-81
2021/06/30 03:45:44;;;;;;;5.00;4.80;;;14.50;99.90;;;;;;5082084;28;20228;-81
2021/06/30 03:48:10;;;;;;;5.17;4.97;;;14.50;99.90;;;;;;5083663;28;20770;-80
2021/06/30 03:50:37;;;;;;;5.20;5.00;;;14.50;99.90;;;;;;5086110;28;20196;-80
2021/06/30 03:53:04;;;;;;;5.23;5.03;;;14.40;99.90;;;;;;5085007;28;20246;-80
2021/06/30 03:55:31;;;;;;;5.63;5.33;;;14.40;99.90;;;;;;5103732;28;20637;-80
2021/06/30 03:57:58;;;;;;;6.87;6.47;;;14.40;99.90;;;;;;5081625;28;20204;-81
2021/06/30 04:00:27;;;;;;;4.90;4.70;;;14.40;99.90;;;;;;5087937;28;20253;-81
2021/06/30 04:02:55;;;;;;;4.70;4.33;;;14.40;99.90;;;;;;5083708;28;20207;-81
2021/06/30 04:05:25;;;;;;;4.70;4.50;;;14.30;99.90;;;;;;5083836;28;20601;-81
2021/06/30 04:07:51;;;;;;;4.50;4.30;;;14.40;99.90;;;;;;5104838;28;20201;-81
2021/06/30 04:10:18;;;;;;;4.73;4.53;;;14.40;99.90;;;;;;5104117;28;20186;-81
2021/06/30 04:12:45;;;;;;;4.70;4.50;;;14.40;99.90;;;;;;5086367;28;20195;-81
2021/06/30 04:15:12;;;;;;;4.60;4.40;;;14.40;99.90;;;;;;5082231;28;20196;-81
2021/06/30 04:17:40;;;;;;;4.60;4.40;;;14.40;99.90;;;;;;5086826;28;20200;-80
2021/06/30 04:20:10;;;;;;;4.80;4.60;;;14.40;99.90;;;;;;5086315;28;20205;-81
2021/06/30 04:22:38;;;;;;;5.40;5.00;;;14.50;99.90;;;;;;5100778;28;20225;-81
2021/06/30 04:25:07;;;;;;;4.70;4.50;;;14.60;99.90;;;;;;5104413;28;20222;-81
2021/06/30 04:27:34;;;;;;;4.43;4.23;;;14.70;99.90;;;;;;5084705;28;20205;-81
2021/06/30 04:30:02;;;;;;;6.10;5.70;;;14.80;99.90;;;;;;5104554;28;20569;-81
2021/06/30 04:32:29;;;;;;;4.80;4.60;;;14.80;99.90;;;;;;5103727;28;20197;-81
2021/06/30 04:34:57;;;;;;;5.10;4.70;;;14.90;99.90;;;;;;5101057;28;20190;-81
2021/06/30 04:37:25;;;;;;;6.00;5.50;;;15.00;99.90;;;;;;5085186;28;20219;-81
2021/06/30 04:39:52;;;;;;;4.63;4.30;;;15.10;99.90;;;;;;5080731;28;20592;-81
2021/06/30 04:42:20;;;;;;;3.93;3.73;;;15.00;99.90;;;;;;5083455;28;20258;-81
2021/06/30 04:44:47;;;;;;;3.70;3.57;;;15.10;99.90;;;;;;5085175;28;20657;-80
2021/06/30 04:47:14;;;;;;;4.93;4.73;;;15.20;99.90;;;;;;5101888;28;20221;-82
2021/06/30 04:49:40;;;;;;;3.00;2.90;;;15.30;99.90;;;;;;5084211;28;20250;-81
2021/06/30 04:52:09;;;;;;;3.90;3.70;;;15.50;99.90;;;;;;5086955;28;20201;-81
2021/06/30 04:54:36;;;;;;;2.90;2.80;;;16.00;99.90;;;;;;5092949;28;20204;-82
2021/06/30 04:57:03;;;;;;;4.90;4.70;;;16.70;99.90;;;;;;5106210;28;20240;-83
2021/06/30 04:59:29;;;;;;;4.90;4.70;;;17.00;99.90;;;;;;5087125;28;20216;-82
2021/06/30 05:01:56;;;;;;;6.47;6.10;;;17.40;99.90;;;;;;5097718;28;20186;-82
2021/06/30 05:04:23;;;;;;;6.67;6.37;;;17.80;99.90;;;;;;5106984;28;20190;-81
2021/06/30 05:06:50;;;;;;;7.10;6.70;;;18.00;99.90;;;;;;5107206;28;20702;-81
2021/06/30 05:09:18;;;;;;;6.33;5.93;;;18.20;99.90;;;;;;5088575;28;20250;-82
2021/06/30 05:11:46;;;;;;;6.50;6.13;;;18.10;99.90;;;;;;5092967;28;20207;-82
2021/06/30 05:14:12;;;;;;;7.17;6.70;;;18.20;99.90;;;;;;5108036;28;20200;-83
2021/06/30 05:16:39;;;;;;;5.50;5.20;;;18.20;99.90;;;;;;5085515;28;20244;-82
2021/06/30 05:19:06;;;;;;;6.00;5.70;;;18.10;99.90;;;;;;5087809;28;20261;-82
2021/06/30 05:21:33;;;;;;;6.00;5.70;;;17.90;99.90;;;;;;5105982;28;20204;-82
2021/06/30 05:24:00;;;;;;;7.63;7.23;;;17.80;99.90;;;;;;5105156;28;20199;-82
2021/06/30 05:26:28;;;;;;;7.73;7.30;;;18.00;99.90;;;;;;5086125;28;20764;-82
2021/06/30 05:28:55;;;;;;;5.77;5.47;;;17.90;99.90;;;;;;5108693;28;20558;-82
2021/06/30 05:31:21;;;;;;;7.90;7.50;;;17.90;99.90;;;;;;5106625;28;20188;-82
2021/06/30 05:33:48;;;;;;;8.23;7.83;;;17.70;99.90;;;;;;5102085;28;20206;-82
2021/06/30 05:36:15;;;;;;;7.87;7.40;;;17.70;99.90;;;;;;5084647;28;20742;-82
2021/06/30 05:38:42;;;;;;;8.60;8.20;;;17.60;99.90;;;;;;5104469;28;20192;-82
2021/06/30 05:41:09;;;;;;;4.93;4.73;;;17.50;99.90;;;;;;5104120;28;20188;-82
2021/06/30 05:43:38;;;;;;;4.40;4.20;;;17.50;99.90;;;;;;5086680;28;20618;-83
2021/06/30 05:46:05;;;;;;;11.20;10.60;;;17.50;99.90;;;;;;5106940;28;20285;-82
2021/06/30 05:48:32;;;;;;;4.60;4.30;;;17.50;99.90;;;;;;5102910;28;20676;-83
2021/06/30 05:50:59;;;;;;;10.73;10.13;;;17.50;99.90;;;;;;5087311;28;20195;-82
2021/06/30 05:53:26;;;;;;;9.13;8.60;;;17.40;99.90;;;;;;5103247;28;20193;-82
2021/06/30 05:55:53;;;;;;;9.20;8.70;;;17.30;99.90;;;;;;5086350;28;20754;-82
2021/06/30 05:58:19;;;;;;;8.83;8.33;;;18.00;99.90;;;;;;5082895;28;20205;-83
2021/06/30 06:00:48;;;;;;;2.00;1.90;;;19.20;99.90;;;;;;5104480;28;20205;-82
2021/06/30 06:03:15;;;;;;;4.47;4.27;;;20.30;99.90;;;;;;5107699;28;20197;-83
2021/06/30 06:05:42;;;;;;;6.20;5.90;;;21.30;99.90;;;;;;5083910;28;20218;-83
2021/06/30 06:08:10;;;;;;;6.00;5.70;;;21.90;99.90;;;;;;5087664;28;20199;-82
2021/06/30 06:10:36;;;;;;;7.03;6.53;;;22.40;99.90;;;;;;5089800;28;20205;-82
2021/06/30 06:13:04;;;;;;;2.17;2.07;;;22.50;99.90;;;;;;5092066;28;20215;-82
2021/06/30 06:15:31;;;;;;;2.50;2.30;;;23.00;99.90;;;;;;5092095;28;20288;-83
2021/06/30 06:17:59;;;;;;;1.87;1.87;;;23.30;99.90;;;;;;5079170;28;20633;-83
2021/06/30 06:20:26;;;;;;;2.10;1.90;;;23.30;99.90;;;;;;5113569;28;20197;-83
2021/06/30 06:22:52;;;;;;;4.50;4.30;;;23.60;99.90;;;;;;5092771;28;20202;-83
2021/06/30 06:25:19;;;;;;;6.97;6.57;;;23.50;99.90;;;;;;5098503;28;20239;-83
2021/06/30 06:27:46;;;;;;;6.20;5.90;;;22.90;99.90;;;;;;5104667;28;20657;-83
2021/06/30 06:30:14;;;;;;;5.00;4.70;;;22.80;99.90;;;;;;5105077;28;20258;-83
2021/06/30 06:32:41;;;;;;;6.93;6.53;;;22.60;99.90;;;;;;5122688;28;20196;-83
2021/06/30 06:35:10;;;;;;;8.67;8.17;;;22.10;99.90;;;;;;5102694;28;20665;-82
2021/06/30 06:37:38;;;;;;;8.73;8.23;;;21.70;99.90;;;;;;5088344;28;20666;-83
2021/06/30 06:40:06;;;;;;;7.90;7.50;;;21.60;99.90;;;;;;5096620;28;20216;-83
2021/06/30 06:42:33;;;;;;;8.23;7.73;;;22.20;99.90;;;;;;5089656;28;20669;-82
2021/06/30 06:45:00;;;;;;;6.17;5.83;;;23.00;99.90;;;;;;5115974;28;20185;-83
2021/06/30 06:47:27;;;;;;;3.70;3.50;;;23.60;99.90;;;;;;5097646;28;20197;-83
2021/06/30 06:49:54;;;;;;;4.63;4.23;;;23.70;99.90;;;;;;5087261;28;20205;-83
2021/06/30 06:52:22;;;;;;;5.20;4.90;;;23.80;99.90;;;;;;5105196;28;20197;-82
2021/06/30 06:54:49;;;;;;;3.70;3.50;;;24.30;99.90;;;;;;5086515;28;20621;-83
2021/06/30 06:57:15;;;;;;;3.97;3.77;;;24.40;99.90;;;;;;5086200;28;20209;-83
2021/06/30 06:59:42;;;;;;;6.60;6.23;;;24.60;99.90;;;;;;5099901;28;20194;-83
2021/06/30 07:02:09;;;;;;;3.20;3.00;;;24.90;99.90;;;;;;5085039;28;20197;-83
2021/06/30 07:04:36;;;;;;;2.50;2.40;;;24.60;99.90;;;;;;5085348;28;20219;-82
2021/06/30 07:07:03;;;;;;;3.67;3.57;;;24.70;99.90;;;;;;5103501;28;20209;-83
2021/06/30 07:09:31;;;;;;;4.00;3.80;;;24.80;99.90;;;;;;5084937;28;20211;-84
2021/06/30 07:11:58;;;;;;;5.40;5.10;;;24.50;99.90;;;;;;5103185;28;20284;-83
2021/06/30 07:14:25;;;;;;;6.57;6.23;;;24.00;99.90;;;;;;5087220;28;20832;-83
2021/06/30 07:16:52;;;;;;;7.50;7.10;;;23.50;99.90;;;;;;5100377;28;20227;-82
2021/06/30 07:19:18;;;;;;;7.90;7.50;;;22.70;99.90;;;;;;5082992;28;20205;-83
2021/06/30 07:21:45;;;;;;;8.43;7.63;;;22.10;99.90;;;;;;5085585;28;20202;-82
2021/06/30 07:24:12;;;;;;;8.27;7.67;;;21.60;99.90;;;;;;5102766;28;20201;-83
2021/06/30 07:26:40;;;;;;;7.97;7.50;;;21.30;99.90;;;;;;5085236;28;20227;-82
2021/06/30 07:29:09;;;;;;;8.13;7.73;;;21.40;99.90;;;;;;5080732;28;20205;-81
2021/06/30 07:31:36;;;;;;;8.00;7.60;;;21.50;99.90;;;;;;5093772;28;20197;-83
2021/06/30 07:34:03;;;;;;;8.30;7.90;;;21.50;99.90;;;;;;5104902;28;20662;-83
2021/06/30 07:36:30;;;;;;;8.30;7.90;;;21.50;99.90;;;;;;5110181;28;20278;-83
2021/06/30 07:38:57;;;;;;;8.67;8.17;;;21.30;99.90;;;;;;5097061;28;21214;-83
2021/06/30 07:41:24;;;;;;;8.47;7.87;;;21.20;99.90;;;;;;5091112;28;20182;-82
2021/06/30 07:43:52;;;;;;;8.20;7.60;;;20.90;99.90;;;;;;5094168;28;20552;-83
2021/06/30 07:46:19;;;;;;;8.33;7.87;;;20.90;99.90;;;;;;5092733;28;20220;-83
2021/06/30 07:48:46;;;;;;;8.50;8.00;;;20.90;99.90;;;;;;5081781;28;20209;-83
2021/06/30 07:51:13;;;;;;;8.10;7.70;;;20.70;99.90;;;;;;5101419;28;20197;-82
2021/06/30 07:53:42;;;;;;;7.97;7.57;;;20.60;99.90;;;;;;5108270;28;20192;-83
2021/06/30 07:56:10;;;;;;;8.17;7.67;;;20.50;99.90;;;;;;5105457;28;20208;-83
2021/06/30 07:58:37;;;;;;;8.20;7.80;;;20.20;99.90;;;;;;5103397;28;20607;-82
2021/06/30 08:01:06;;;;;;;7.70;7.30;;;20.10;99.90;;;;;;5085623;28;20209;-83
2021/06/30 08:03:32;;;;;;;8.10;7.70;;;20.00;99.90;;;;;;5085907;28;20320;-82
2021/06/30 08:05:59;;;;;;;7.60;7.20;;;19.80;99.90;;;;;;5081016;28;20698;-81
2021/06/30 08:08:26;;;;;;;7.90;7.43;;;19.90;99.90;;;;;;5079438;28;20254;-82
2021/06/30 08:10:53;;;;;;;8.07;7.67;;;19.80;99.90;;;;;;5104693;28;20204;-83
2021/06/30 08:13:20;;;;;;;7.60;7.20;;;19.80;99.90;;;;;;5090557;28;20270;-83
2021/06/30 08:15:47;;;;;;;7.67;7.27;;;19.80;99.90;;;;;;5111220;28;20216;-83
2021/06/30 08:18:15;;;;;;;8.03;7.43;;;19.90;99.90;;;;;;5090574;28;20191;-82
2021/06/30 08:20:43;;;;;;;8.10;7.60;;;19.70;99.90;;;;;;5110461;28;20216;-84
2021/06/30 08:23:10;;;;;;;7.60;7.20;;;19.60;99.90;;;;;;5090109;28;20194;-82
2021/06/30 08:25:36;;;;;;;8.30;7.80;;;19.40;99.90;;;;;;5118818;22;20602;-76
2021/06/30 08:28:04;;;;;;;8.10;7.70;;;19.10;99.90;;;;;;5058076;28;20216;-77
2021/06/30 08:30:30;;;;;;;7.60;7.20;;;18.90;99.90;;;;;;5051024;28;20204;-76
2021/06/30 08:32:57;;;;;;;7.60;7.20;;;18.90;99.90;;;;;;5064326;28;20211;-76
2021/06/30 08:35:25;;;;;;;7.57;7.10;;;19.30;99.90;;;;;;5050914;28;20227;-77
2021/06/30 08:37:54;;;;;;;7.23;6.83;;;20.10;99.90;;;;;;5054695;28;20231;-77
2021/06/30 08:40:21;;;;;;;6.37;5.97;;;20.90;99.90;;;;;;5049252;28;20202;-75
2021/06/30 08:42:48;;;;;;;7.83;7.43;;;21.80;99.90;;;;;;5058473;28;20209;-77
2021/06/30 08:45:16;;;;;;;4.23;4.03;;;22.70;99.90;;;;;;5054836;28;20205;-77
2021/06/30 08:47:43;;;;;;;7.37;6.87;;;23.50;99.90;;;;;;5053382;28;20243;-76
2021/06/30 08:50:13;;;;;;;6.70;6.40;;;24.00;99.90;;;;;;5064745;28;20205;-77
2021/06/30 08:52:42;;;;;;;5.97;5.67;;;24.60;99.90;;;;;;5057843;28;20199;-77
2021/06/30 08:55:12;;;;;;;5.70;5.40;;;24.90;99.90;;;;;;5058113;28;20194;-77
2021/06/30 08:57:38;;;;;;;4.07;3.70;;;24.70;99.90;;;;;;5049219;28;20228;-77
2021/06/30 09:00:07;;;;;;;5.10;4.70;;;24.90;99.90;;;;;;5058564;28;20205;-77
2021/06/30 09:02:34;;;;;;;2.80;2.70;;;24.70;99.90;;;;;;5060397;28;20200;-77
2021/06/30 09:05:12;;;;;;;6.07;5.77;;;25.00;99.90;;;;;;5060133;28;20187;-77
2021/06/30 09:07:41;;;;;;;7.90;7.40;;;24.50;99.90;;;;;;5058612;28;20210;-77
2021/06/30 09:10:10;;;;;;;7.23;6.83;;;23.80;99.90;;;;;;5053555;28;20203;-76
2021/06/30 09:12:39;;;;;;;1.80;1.70;;;23.30;99.90;;;;;;5053225;28;20215;-76
2021/06/30 09:15:17;;;;;;;1.60;1.60;;;23.20;99.90;;;;;;5046811;28;20203;-77
2021/06/30 09:17:46;;;;;;;2.20;1.70;;;23.30;99.90;;;;;;5061502;28;20244;-76
2021/06/30 09:20:13;;;;;;;1.70;1.60;;;23.30;99.90;;;;;;5054091;28;20849;-77
2021/06/30 09:22:47;;;;;;;2.03;1.53;;;23.50;99.90;;;;;;5061028;28;20686;-76
2021/06/30 09:25:28;;;;;;;1.87;1.60;;;23.50;99.90;;;;;;5053942;28;20230;-77
2021/06/30 09:27:55;;;;;;;1.60;1.60;;;23.50;99.90;;;;;;5052582;28;20196;-76
2021/06/30 09:30:22;;;;;;;1.70;1.60;;;23.30;99.90;;;;;;5037240;28;20227;-76
2021/06/30 09:33:04;;;;;;;1.60;1.50;;;22.90;99.90;;;;;;5061326;28;20272;-76
2021/06/30 09:35:33;;;;;;;1.70;1.70;;;22.70;99.90;;;;;;5058128;28;20682;-77
2021/06/30 09:38:29;;;;;;;2.20;2.10;;;22.70;99.90;;;;;;5052921;28;20308;-77
2021/06/30 09:40:55;;;;;;;2.10;2.00;;;22.60;99.90;;;;;;5052101;28;20270;-77
2021/06/30 09:43:27;;;;;;;2.10;2.00;;;23.20;99.90;;;;;;5050931;28;20621;-77
2021/06/30 09:45:57;;;;;;;1.57;1.50;;;23.40;99.90;;;;;;5052107;28;20279;-77
2021/06/30 09:48:37;;;;;;;1.80;1.70;;;23.70;99.90;;;;;;5062117;28;20264;-77
2021/06/30 09:51:06;;;;;;;2.30;2.20;;;23.60;99.90;;;;;;5061208;28;20675;-76
2021/06/30 09:53:43;;;;;;;2.30;2.20;;;23.10;99.90;;;;;;5068923;28;20188;-77
2021/06/30 09:56:32;;;;;;;2.90;2.70;;;22.80;99.90;;;;;;5060551;28;20231;-77
2021/06/30 09:59:15;;;;;;;2.60;2.20;;;22.60;99.90;;;;;;5054252;28;20203;-76
2021/06/30 10:01:43;;;;;;;1.50;1.50;;;22.50;99.90;;;;;;5061894;28;20206;-77
2021/06/30 10:04:21;;;;;;;3.83;3.63;;;22.80;99.90;;;;;;5060787;28;20202;-77
2021/06/30 10:06:48;;;;;;;6.73;6.40;;;23.00;99.90;;;;;;5051441;28;20212;-77
2021/06/30 10:09:16;;;;;;;6.40;6.10;;;23.30;99.90;;;;;;5062772;28;20699;-76
2021/06/30 10:11:55;;;;;;;7.00;6.60;;;23.40;99.90;;;;;;5057593;28;20218;-76
2021/06/30 10:14:22;;;;;;;1.40;1.40;;;23.50;99.90;;;;;;5058401;28;20241;-77
2021/06/30 10:16:50;;;;;;;1.63;1.60;;;23.80;99.90;;;;;;5061589;28;20272;-76
2021/06/30 10:19:18;;;;;;;1.40;1.40;;;23.80;99.90;;;;;;5057635;28;20191;-77
2021/06/30 10:21:46;;;;;;;1.40;1.40;;;23.70;99.90;;;;;;5063201;28;20205;-77
2021/06/30 10:24:16;;;;;;;1.80;1.70;;;23.80;99.90;;;;;;5053694;28;20553;-76
2021/06/30 10:26:43;;;;;;;1.50;1.50;;;23.80;99.90;;;;;;5057038;28;20721;-77
2021/06/30 10:29:10;;;;;;;2.90;2.80;;;24.00;99.90;;;;;;5054330;28;20207;-77
2021/06/30 10:31:41;;;;;;;2.80;2.70;;;24.00;99.90;;;;;;5059473;28;20209;-76
2021/06/30 10:34:11;;;;;;;2.77;2.67;;;23.60;99.90;;;;;;5062062;28;20193;-76
2021/06/30 10:36:49;;;;;;;3.43;3.23;;;23.50;99.90;;;;;;5060020;28;20584;-76
2021/06/30 10:39:19;;;;;;;7.37;6.97;;;23.40;99.90;;;;;;5057252;28;20206;-77
2021/06/30 10:41:53;;;;;;;8.10;7.70;;;23.10;99.90;;;;;;5063375;28;20728;-77
2021/06/30 10:44:21;;;;;;;7.00;6.70;;;23.20;99.90;;;;;;5057739;28;20195;-77
2021/06/30 10:46:49;;;;;;;7.20;6.80;;;23.00;99.90;;;;;;5062705;28;20210;-77
2021/06/30 10:49:24;;;;;;;7.17;6.77;;;22.70;99.90;;;;;;5057668;28;20195;-77
2021/06/30 10:51:53;;;;;;;7.60;7.20;;;22.60;99.90;;;;;;5053068;28;20675;-77
2021/06/30 10:54:40;;;;;;;7.10;6.70;;;22.40;99.90;;;;;;5061290;28;20883;-77
2021/06/30 10:57:27;;;;;;;7.10;6.60;;;21.90;99.90;;;;;;5051651;28;20219;-76
2021/06/30 11:00:32;;;;;;;7.27;6.87;;;21.70;99.90;;;;;;5061744;28;20671;-76
2021/06/30 11:03:22;;;;;;;7.17;6.77;;;21.90;99.90;;;;;;5069737;28;20564;-76
2021/06/30 11:05:49;;;;;;;6.50;6.20;;;22.20;99.90;;;;;;5063564;28;20230;-78
2021/06/30 11:08:45;;;;;;;5.33;5.03;;;22.60;99.90;;;;;;5055853;28;20667;-77
2021/06/30 11:11:15;;;;;;;6.83;6.43;;;23.00;99.90;;;;;;5056081;28;20234;-77
2021/06/30 11:14:02;;;;;;;7.50;7.10;;;23.00;99.90;;;;;;5055127;28;20686;-77
2021/06/30 11:16:51;;;;;;;2.87;2.77;;;22.90;99.90;;;;;;5054171;28;20218;-77
2021/06/30 11:19:38;;;;;;;4.43;4.03;;;22.40;99.90;;;;;;5045732;28;20206;-76
2021/06/30 11:22:07;;;;;;;7.57;7.07;;;22.00;99.90;;;;;;5059584;28;20694;-77
2021/06/30 11:24:46;;;;;;;7.27;6.87;;;21.90;99.90;;;;;;5062945;28;20285;-77
2021/06/30 11:27:45;;;;;;;4.33;4.13;;;22.00;99.90;;;;;;5052194;28;20218;-76
2021/06/30 11:30:33;;;;;;;7.87;7.47;;;22.30;99.90;;;;;;5048846;28;20731;-76
2021/06/30 11:33:00;;;;;;;2.80;2.70;;;22.40;99.90;;;;;;5052922;28;20273;-77
2021/06/30 11:35:32;;;;;;;8.50;8.00;;;22.50;99.90;;;;;;5046701;28;20215;-76
2021/06/30 11:38:02;;;;;;;7.00;6.60;;;22.40;99.90;;;;;;5061837;28;20694;-76
2021/06/30 11:40:34;;;;;;;7.37;6.90;;;22.10;99.90;;;;;;5064836;28;20578;-77
2021/06/30 11:43:01;;;;;;;7.90;7.40;;;21.80;99.90;;;;;;5060132;28;20225;-76
2021/06/30 11:45:32;;;;;;;8.67;8.00;;;21.40;99.90;;;;;;5061800;28;20635;-76
2021/06/30 11:48:01;;;;;;;8.03;7.53;;;20.70;99.90;;;;;;5054913;28;20827;-76
2021/06/30 11:50:30;;;;;;;8.00;7.50;;;20.20;99.90;;;;;;5057594;28;20252;-76
2021/06/30 11:52:59;;;;;;;8.20;7.60;;;19.80;99.90;;;;;;5053376;28;20202;-77
2021/06/30 11:55:27;;;;;;;7.83;7.40;;;19.50;99.90;;;;;;5051232;28;20224;-76
2021/06/30 11:57:56;;;;;;;9.23;8.53;;;19.30;99.90;;;;;;5059368;28;20277;-76
2021/06/30 12:00:23;;;;;;;7.80;7.30;;;19.10;99.90;;;;;;5045815;28;20250;-76
2021/06/30 12:02:53;;;;;;;8.07;7.20;;;18.70;99.90;;;;;;5057944;28;20200;-77
2021/06/30 12:05:23;;;;;;;7.73;7.20;;;18.70;99.90;;;;;;5061189;28;20193;-78
2021/06/30 12:07:51;;;;;;;7.50;7.00;;;18.90;99.90;;;;;;5057543;28;20209;-76
2021/06/30 12:10:18;;;;;;;7.27;6.87;;;19.00;99.90;;;;;;5053833;28;20221;-76
2021/06/30 12:12:46;;;;;;;8.30;7.80;;;19.30;99.90;;;;;;5061456;28;20246;-77
2021/06/30 12:15:14;;;;;;;8.10;7.50;;;19.50;99.90;;;;;;5054652;28;20226;-76
2021/06/30 12:17:46;;;;;;;8.27;7.67;;;19.90;99.90;;;;;;5055751;28;20282;-76
2021/06/30 12:20:16;;;;;;;7.40;7.00;;;20.30;99.90;;;;;;5053350;28;20266;-77
2021/06/30 12:22:44;;;;;;;8.13;7.53;;;20.70;99.90;;;;;;5061755;28;20704;-76
2021/06/30 12:25:20;;;;;;;4.17;3.87;;;20.90;99.90;;;;;;5065090;28;20200;-76
2021/06/30 12:27:50;;;;;;;7.13;6.60;;;21.30;99.90;;;;;;5070576;28;20231;-77
2021/06/30 12:30:18;;;;;;;7.03;6.53;;;21.50;99.90;;;;;;5071145;28;20263;-77
2021/06/30 12:32:47;;;;;;;7.17;6.67;;;21.60;99.90;;;;;;5072214;28;20562;-76
2021/06/30 12:35:21;;;;;;;7.10;6.73;;;21.80;99.90;;;;;;5066215;28;20267;-77
2021/06/30 12:37:55;;;;;;;7.90;7.40;;;22.10;99.90;;;;;;5057346;28;20291;-77
2021/06/30 12:40:22;;;;;;;7.07;6.77;;;22.20;99.90;;;;;;5057969;28;20219;-76
2021/06/30 12:42:51;;;;;;;7.80;7.40;;;22.00;99.90;;;;;;5061807;28;20195;-77
2021/06/30 12:45:21;;;;;;;7.10;6.70;;;21.70;99.90;;;;;;5056147;28;20613;-77
2021/06/30 12:47:55;;;;;;;7.00;6.70;;;21.70;99.90;;;;;;5050093;28;20708;-77
2021/06/30 12:50:35;;;;;;;7.30;6.90;;;21.90;99.90;;;;;;5052676;28;20196;-76
2021/06/30 12:53:08;;;;;;;7.37;6.97;;;22.20;99.90;;;;;;5052701;28;20610;-76
2021/06/30 12:55:58;;;;;;;7.93;7.53;;;22.50;99.90;;;;;;5058545;28;20699;-76
2021/06/30 12:58:37;;;;;;;7.30;6.90;;;22.50;99.90;;;;;;5052847;28;20218;-77